메인 페이지
METAR-TAF:

METAR-TAF

공항 :

Rutland Southern Vermont Regional Airport

Rutland, 버몬트, 미국

위도: 43-32N, 경도: 072-57W, 고도: 240m

현재 날씨관측

예보는 31분 전, 18:56시(UTC)에 발표되었습니다.
북서6kt
온도 13°C
습도 58%
기압 1015 hPa
시정: 16.1km
고도 3800ft 상공 구름 보통
고도 4500ft 상공 구름 많음
고도 5000ft 상공 흐림

METAR: KRUT 041856Z AUTO 32006KT 10SM SCT038 BKN045 OVC050 13/05 A2997 RMK AO2 SLP144 T01330050 $

시각: 15:27 (19:27 UTC)

예보

예보는 1 시간 49분 전, 17:38시(UTC)에 발표되었습니다.
예보 대상 시간: 04일 18시부터 05일 18시까지 (UTC)
여러 방향의 바람 3kt
시정: 10km
고도 3500ft 상공 흐림
05일 0200시부터 (UTC)
동남동4kt
시정: 10km
고도 3500ft 상공 구름 많음
05일 1300시부터 (UTC)
kt
시정: 10km
고도 2900ft 상공 구름 많음

TAF: KRUT 041738Z 0418/0518 VRB03KT P6SM OVC035 FM050200 12004KT P6SM BKN035 FM051300 00000KT P6SM BKN029

4,000개 이상의 공항 관측 자료 및 예보 (METAR 및 TAF 보고).

지도상에서 검색 가능한 기상관측소가 노란 점과 빨간 점으로 표시되어 있습니다.

기상관측소 명을 보려면 표시 위로 마우스를 이동하세요.

날씨 관측과 예보를 보려면 클릭하세요.

지도 변경 : 확대하려면 엑스 표시가 있는 녹색 버튼, 축소하려면 빼기 표시가 있는 녹색 버튼, 다음 페이지의 지도를 보려면 녹색 화살표를 클릭하세요.


METAR-TAF: